sensor_id;sensor_type;location;lat;lon;timestamp;P1;durP1;ratioP1;P2;durP2;ratioP2
58731;SDS011;44508;44.626;21.182;2022-12-18T00:01:20;71.85;;;40.72;;
58731;SDS011;44508;44.626;21.182;2022-12-18T00:03:46;80.03;;;45.03;;
58731;SDS011;44508;44.626;21.182;2022-12-18T00:06:13;79.75;;;46.58;;
58731;SDS011;44508;44.626;21.182;2022-12-18T00:08:40;76.72;;;45.03;;
58731;SDS011;44508;44.626;21.182;2022-12-18T00:11:06;83.22;;;47.30;;
58731;SDS011;44508;44.626;21.182;2022-12-18T00:13:34;82.55;;;46.63;;
58731;SDS011;44508;44.626;21.182;2022-12-18T00:16:04;77.03;;;43.58;;
58731;SDS011;44508;44.626;21.182;2022-12-18T00:18:31;84.93;;;47.20;;
58731;SDS011;44508;44.626;21.182;2022-12-18T00:21:01;78.05;;;45.53;;
58731;SDS011;44508;44.626;21.182;2022-12-18T00:23:27;83.10;;;48.08;;
58731;SDS011;44508;44.626;21.182;2022-12-18T00:25:54;82.82;;;47.38;;
58731;SDS011;44508;44.626;21.182;2022-12-18T00:28:20;99.40;;;54.05;;
58731;SDS011;44508;44.626;21.182;2022-12-18T00:30:46;83.82;;;48.70;;
58731;SDS011;44508;44.626;21.182;2022-12-18T00:33:12;83.65;;;48.35;;
58731;SDS011;44508;44.626;21.182;2022-12-18T00:35:38;98.75;;;52.90;;
58731;SDS011;44508;44.626;21.182;2022-12-18T00:38:04;90.18;;;51.78;;
58731;SDS011;44508;44.626;21.182;2022-12-18T00:40:31;85.18;;;45.85;;
58731;SDS011;44508;44.626;21.182;2022-12-18T00:42:57;89.43;;;48.83;;
58731;SDS011;44508;44.626;21.182;2022-12-18T00:45:24;106.43;;;57.00;;
58731;SDS011;44508;44.626;21.182;2022-12-18T00:47:50;89.72;;;49.15;;
58731;SDS011;44508;44.626;21.182;2022-12-18T00:50:16;103.63;;;53.03;;
58731;SDS011;44508;44.626;21.182;2022-12-18T00:52:43;101.07;;;52.85;;
58731;SDS011;44508;44.626;21.182;2022-12-18T00:55:09;73.97;;;40.88;;
58731;SDS011;44508;44.626;21.182;2022-12-18T00:57:35;91.03;;;48.88;;
58731;SDS011;44508;44.626;21.182;2022-12-18T01:00:03;106.75;;;54.33;;
58731;SDS011;44508;44.626;21.182;2022-12-18T01:02:29;107.65;;;54.67;;
58731;SDS011;44508;44.626;21.182;2022-12-18T01:04:55;125.70;;;62.88;;
58731;SDS011;44508;44.626;21.182;2022-12-18T01:07:21;98.97;;;50.80;;
58731;SDS011;44508;44.626;21.182;2022-12-18T01:09:47;110.80;;;57.35;;
58731;SDS011;44508;44.626;21.182;2022-12-18T01:12:13;98.97;;;49.90;;
58731;SDS011;44508;44.626;21.182;2022-12-18T01:14:39;92.68;;;48.90;;
58731;SDS011;44508;44.626;21.182;2022-12-18T01:17:05;93.30;;;51.22;;
58731;SDS011;44508;44.626;21.182;2022-12-18T01:19:31;87.88;;;48.15;;
58731;SDS011;44508;44.626;21.182;2022-12-18T01:21:57;84.20;;;45.28;;
58731;SDS011;44508;44.626;21.182;2022-12-18T01:24:24;92.22;;;51.38;;
58731;SDS011;44508;44.626;21.182;2022-12-18T01:26:50;85.55;;;44.25;;
58731;SDS011;44508;44.626;21.182;2022-12-18T01:29:16;87.10;;;45.25;;
58731;SDS011;44508;44.626;21.182;2022-12-18T01:31:42;89.88;;;47.65;;
58731;SDS011;44508;44.626;21.182;2022-12-18T01:34:08;88.43;;;46.03;;
58731;SDS011;44508;44.626;21.182;2022-12-18T01:36:36;83.32;;;45.80;;
58731;SDS011;44508;44.626;21.182;2022-12-18T01:39:04;85.35;;;44.45;;
58731;SDS011;44508;44.626;21.182;2022-12-18T01:41:31;84.03;;;45.03;;
58731;SDS011;44508;44.626;21.182;2022-12-18T01:47:01;73.15;;;42.40;;
58731;SDS011;44508;44.626;21.182;2022-12-18T01:49:27;81.35;;;44.13;;
58731;SDS011;44508;44.626;21.182;2022-12-18T01:51:53;78.15;;;44.17;;
58731;SDS011;44508;44.626;21.182;2022-12-18T01:54:19;76.82;;;44.40;;
58731;SDS011;44508;44.626;21.182;2022-12-18T01:56:45;84.25;;;44.47;;
58731;SDS011;44508;44.626;21.182;2022-12-18T01:59:11;85.15;;;45.42;;
58731;SDS011;44508;44.626;21.182;2022-12-18T02:01:37;77.20;;;40.63;;
58731;SDS011;44508;44.626;21.182;2022-12-18T02:04:20;76.47;;;42.10;;
58731;SDS011;44508;44.626;21.182;2022-12-18T02:06:46;86.55;;;45.60;;
58731;SDS011;44508;44.626;21.182;2022-12-18T02:09:20;67.45;;;39.15;;
58731;SDS011;44508;44.626;21.182;2022-12-18T02:16:57;68.70;;;37.38;;
58731;SDS011;44508;44.626;21.182;2022-12-18T02:27:13;77.60;;;41.42;;
58731;SDS011;44508;44.626;21.182;2022-12-18T02:29:57;74.28;;;39.50;;
58731;SDS011;44508;44.626;21.182;2022-12-18T02:32:26;76.45;;;40.30;;
58731;SDS011;44508;44.626;21.182;2022-12-18T02:34:52;80.30;;;43.97;;
58731;SDS011;44508;44.626;21.182;2022-12-18T02:37:21;77.45;;;40.15;;
58731;SDS011;44508;44.626;21.182;2022-12-18T02:39:48;87.38;;;44.28;;
58731;SDS011;44508;44.626;21.182;2022-12-18T02:42:15;81.78;;;44.15;;
58731;SDS011;44508;44.626;21.182;2022-12-18T02:44:46;76.22;;;42.47;;
58731;SDS011;44508;44.626;21.182;2022-12-18T02:47:13;88.30;;;46.78;;
58731;SDS011;44508;44.626;21.182;2022-12-18T02:57:45;87.15;;;46.00;;
58731;SDS011;44508;44.626;21.182;2022-12-18T03:05:23;90.95;;;47.90;;
58731;SDS011;44508;44.626;21.182;2022-12-18T03:07:55;88.00;;;45.85;;
58731;SDS011;44508;44.626;21.182;2022-12-18T03:10:26;95.95;;;49.33;;
58731;SDS011;44508;44.626;21.182;2022-12-18T03:15:47;77.90;;;40.80;;
58731;SDS011;44508;44.626;21.182;2022-12-18T03:18:23;78.03;;;40.92;;
58731;SDS011;44508;44.626;21.182;2022-12-18T03:20:51;77.95;;;42.53;;
58731;SDS011;44508;44.626;21.182;2022-12-18T03:23:20;75.38;;;40.30;;
58731;SDS011;44508;44.626;21.182;2022-12-18T03:25:46;97.00;;;49.65;;
58731;SDS011;44508;44.626;21.182;2022-12-18T03:28:17;87.38;;;47.35;;
58731;SDS011;44508;44.626;21.182;2022-12-18T03:30:45;88.78;;;47.50;;
58731;SDS011;44508;44.626;21.182;2022-12-18T03:33:19;84.60;;;46.22;;
58731;SDS011;44508;44.626;21.182;2022-12-18T03:35:47;77.97;;;43.35;;
58731;SDS011;44508;44.626;21.182;2022-12-18T03:38:13;82.35;;;45.03;;
58731;SDS011;44508;44.626;21.182;2022-12-18T03:41:03;87.53;;;47.38;;
58731;SDS011;44508;44.626;21.182;2022-12-18T03:45:59;86.22;;;47.35;;
58731;SDS011;44508;44.626;21.182;2022-12-18T03:48:31;79.10;;;43.40;;
58731;SDS011;44508;44.626;21.182;2022-12-18T03:51:07;73.95;;;40.75;;
58731;SDS011;44508;44.626;21.182;2022-12-18T03:53:46;88.60;;;45.75;;
58731;SDS011;44508;44.626;21.182;2022-12-18T03:56:15;85.63;;;46.67;;
58731;SDS011;44508;44.626;21.182;2022-12-18T03:58:42;85.70;;;46.85;;
58731;SDS011;44508;44.626;21.182;2022-12-18T04:01:09;82.38;;;46.75;;
58731;SDS011;44508;44.626;21.182;2022-12-18T04:03:37;80.00;;;40.22;;
58731;SDS011;44508;44.626;21.182;2022-12-18T04:06:03;74.95;;;40.88;;
58731;SDS011;44508;44.626;21.182;2022-12-18T04:08:31;73.93;;;41.13;;
58731;SDS011;44508;44.626;21.182;2022-12-18T04:10:58;69.85;;;38.78;;
58731;SDS011;44508;44.626;21.182;2022-12-18T04:13:24;69.15;;;38.47;;
58731;SDS011;44508;44.626;21.182;2022-12-18T04:15:53;73.93;;;41.45;;
58731;SDS011;44508;44.626;21.182;2022-12-18T04:18:19;75.13;;;39.15;;
58731;SDS011;44508;44.626;21.182;2022-12-18T04:20:45;67.85;;;37.55;;
58731;SDS011;44508;44.626;21.182;2022-12-18T04:23:11;69.68;;;37.55;;
58731;SDS011;44508;44.626;21.182;2022-12-18T04:25:38;77.65;;;39.72;;
58731;SDS011;44508;44.626;21.182;2022-12-18T04:28:04;80.85;;;42.22;;
58731;SDS011;44508;44.626;21.182;2022-12-18T04:30:30;81.03;;;43.03;;
58731;SDS011;44508;44.626;21.182;2022-12-18T04:32:56;87.20;;;46.85;;
58731;SDS011;44508;44.626;21.182;2022-12-18T04:35:22;76.75;;;42.15;;
58731;SDS011;44508;44.626;21.182;2022-12-18T04:37:48;75.20;;;39.92;;
58731;SDS011;44508;44.626;21.182;2022-12-18T04:40:14;73.05;;;38.92;;
58731;SDS011;44508;44.626;21.182;2022-12-18T04:42:40;72.88;;;39.50;;
58731;SDS011;44508;44.626;21.182;2022-12-18T04:45:06;68.20;;;38.78;;
58731;SDS011;44508;44.626;21.182;2022-12-18T04:47:33;65.57;;;36.30;;
58731;SDS011;44508;44.626;21.182;2022-12-18T04:49:59;67.50;;;37.85;;
58731;SDS011;44508;44.626;21.182;2022-12-18T04:52:25;78.93;;;40.22;;
58731;SDS011;44508;44.626;21.182;2022-12-18T04:54:51;82.45;;;42.20;;
58731;SDS011;44508;44.626;21.182;2022-12-18T04:57:17;78.53;;;41.83;;
58731;SDS011;44508;44.626;21.182;2022-12-18T04:59:43;79.03;;;41.55;;
58731;SDS011;44508;44.626;21.182;2022-12-18T05:02:10;83.22;;;43.85;;
58731;SDS011;44508;44.626;21.182;2022-12-18T05:04:36;81.15;;;44.17;;
58731;SDS011;44508;44.626;21.182;2022-12-18T05:07:02;76.65;;;41.88;;
58731;SDS011;44508;44.626;21.182;2022-12-18T05:09:28;71.82;;;39.08;;
58731;SDS011;44508;44.626;21.182;2022-12-18T05:11:54;67.93;;;38.13;;
58731;SDS011;44508;44.626;21.182;2022-12-18T05:14:20;73.30;;;42.03;;
58731;SDS011;44508;44.626;21.182;2022-12-18T05:16:46;82.93;;;46.95;;
58731;SDS011;44508;44.626;21.182;2022-12-18T05:19:12;84.53;;;47.30;;
58731;SDS011;44508;44.626;21.182;2022-12-18T05:21:38;77.57;;;42.45;;
58731;SDS011;44508;44.626;21.182;2022-12-18T05:24:04;82.32;;;44.53;;
58731;SDS011;44508;44.626;21.182;2022-12-18T05:26:30;101.13;;;49.10;;
58731;SDS011;44508;44.626;21.182;2022-12-18T05:28:56;96.43;;;49.00;;
58731;SDS011;44508;44.626;21.182;2022-12-18T05:31:22;87.95;;;46.63;;
58731;SDS011;44508;44.626;21.182;2022-12-18T05:33:48;95.15;;;48.05;;
58731;SDS011;44508;44.626;21.182;2022-12-18T05:36:14;97.00;;;47.28;;
58731;SDS011;44508;44.626;21.182;2022-12-18T05:38:41;76.82;;;43.60;;
58731;SDS011;44508;44.626;21.182;2022-12-18T05:41:07;91.47;;;48.03;;
58731;SDS011;44508;44.626;21.182;2022-12-18T05:43:34;92.65;;;48.85;;
58731;SDS011;44508;44.626;21.182;2022-12-18T05:46:04;96.82;;;49.78;;
58731;SDS011;44508;44.626;21.182;2022-12-18T05:48:30;86.40;;;46.00;;
58731;SDS011;44508;44.626;21.182;2022-12-18T05:51:02;84.95;;;43.92;;
58731;SDS011;44508;44.626;21.182;2022-12-18T05:53:28;78.38;;;42.45;;
58731;SDS011;44508;44.626;21.182;2022-12-18T05:55:59;75.03;;;41.15;;
58731;SDS011;44508;44.626;21.182;2022-12-18T05:58:25;83.70;;;46.75;;
58731;SDS011;44508;44.626;21.182;2022-12-18T06:00:51;72.05;;;39.40;;
58731;SDS011;44508;44.626;21.182;2022-12-18T06:03:17;70.38;;;39.92;;
58731;SDS011;44508;44.626;21.182;2022-12-18T06:05:44;70.90;;;39.08;;
58731;SDS011;44508;44.626;21.182;2022-12-18T06:08:10;114.65;;;57.78;;
58731;SDS011;44508;44.626;21.182;2022-12-18T06:10:37;123.28;;;63.63;;
58731;SDS011;44508;44.626;21.182;2022-12-18T06:13:03;112.38;;;61.25;;
58731;SDS011;44508;44.626;21.182;2022-12-18T06:15:29;99.40;;;54.67;;
58731;SDS011;44508;44.626;21.182;2022-12-18T06:17:55;80.00;;;43.95;;
58731;SDS011;44508;44.626;21.182;2022-12-18T06:20:21;88.82;;;46.20;;
58731;SDS011;44508;44.626;21.182;2022-12-18T06:22:48;82.10;;;45.40;;
58731;SDS011;44508;44.626;21.182;2022-12-18T06:25:14;86.45;;;48.70;;
58731;SDS011;44508;44.626;21.182;2022-12-18T06:27:40;93.57;;;49.08;;
58731;SDS011;44508;44.626;21.182;2022-12-18T06:30:06;111.22;;;58.30;;
58731;SDS011;44508;44.626;21.182;2022-12-18T06:32:32;85.40;;;48.63;;
58731;SDS011;44508;44.626;21.182;2022-12-18T06:34:58;91.30;;;48.38;;
58731;SDS011;44508;44.626;21.182;2022-12-18T06:37:24;101.32;;;53.42;;
58731;SDS011;44508;44.626;21.182;2022-12-18T06:39:51;123.93;;;62.70;;
58731;SDS011;44508;44.626;21.182;2022-12-18T06:42:17;114.00;;;58.88;;
58731;SDS011;44508;44.626;21.182;2022-12-18T06:44:43;104.35;;;53.15;;
58731;SDS011;44508;44.626;21.182;2022-12-18T06:47:09;118.97;;;60.60;;
58731;SDS011;44508;44.626;21.182;2022-12-18T06:49:35;123.57;;;62.17;;
58731;SDS011;44508;44.626;21.182;2022-12-18T06:52:01;121.88;;;65.28;;
58731;SDS011;44508;44.626;21.182;2022-12-18T06:54:27;91.18;;;48.92;;
58731;SDS011;44508;44.626;21.182;2022-12-18T06:56:53;102.75;;;55.63;;
58731;SDS011;44508;44.626;21.182;2022-12-18T06:59:20;107.88;;;53.88;;
58731;SDS011;44508;44.626;21.182;2022-12-18T07:01:46;82.80;;;44.55;;
58731;SDS011;44508;44.626;21.182;2022-12-18T07:04:12;95.07;;;51.42;;
58731;SDS011;44508;44.626;21.182;2022-12-18T07:06:38;94.40;;;49.38;;
58731;SDS011;44508;44.626;21.182;2022-12-18T07:09:04;89.03;;;46.92;;
58731;SDS011;44508;44.626;21.182;2022-12-18T07:11:32;102.97;;;52.85;;
58731;SDS011;44508;44.626;21.182;2022-12-18T07:13:58;106.65;;;53.72;;
58731;SDS011;44508;44.626;21.182;2022-12-18T07:16:24;101.57;;;52.22;;
58731;SDS011;44508;44.626;21.182;2022-12-18T07:18:50;79.50;;;43.50;;
58731;SDS011;44508;44.626;21.182;2022-12-18T07:21:17;81.97;;;43.17;;
58731;SDS011;44508;44.626;21.182;2022-12-18T07:23:43;82.18;;;43.03;;
58731;SDS011;44508;44.626;21.182;2022-12-18T07:26:12;84.43;;;44.17;;
58731;SDS011;44508;44.626;21.182;2022-12-18T07:28:39;87.30;;;43.97;;
58731;SDS011;44508;44.626;21.182;2022-12-18T07:31:06;90.10;;;47.05;;
58731;SDS011;44508;44.626;21.182;2022-12-18T07:33:33;83.78;;;44.15;;
58731;SDS011;44508;44.626;21.182;2022-12-18T07:36:01;88.53;;;45.30;;
58731;SDS011;44508;44.626;21.182;2022-12-18T07:38:28;84.32;;;44.88;;
58731;SDS011;44508;44.626;21.182;2022-12-18T07:40:59;80.65;;;43.67;;
58731;SDS011;44508;44.626;21.182;2022-12-18T07:43:26;92.88;;;46.88;;
58731;SDS011;44508;44.626;21.182;2022-12-18T07:45:52;89.35;;;48.53;;
58731;SDS011;44508;44.626;21.182;2022-12-18T07:48:18;92.03;;;46.03;;
58731;SDS011;44508;44.626;21.182;2022-12-18T07:50:44;92.93;;;46.85;;
58731;SDS011;44508;44.626;21.182;2022-12-18T07:53:10;101.72;;;51.83;;
58731;SDS011;44508;44.626;21.182;2022-12-18T07:55:36;105.28;;;55.25;;
58731;SDS011;44508;44.626;21.182;2022-12-18T07:58:02;126.72;;;63.67;;
58731;SDS011;44508;44.626;21.182;2022-12-18T08:00:29;143.55;;;69.70;;
58731;SDS011;44508;44.626;21.182;2022-12-18T08:02:55;142.93;;;71.22;;
58731;SDS011;44508;44.626;21.182;2022-12-18T08:05:21;140.02;;;64.65;;
58731;SDS011;44508;44.626;21.182;2022-12-18T08:07:47;106.55;;;54.92;;
58731;SDS011;44508;44.626;21.182;2022-12-18T08:10:13;123.45;;;62.30;;
58731;SDS011;44508;44.626;21.182;2022-12-18T08:12:39;99.38;;;52.22;;
58731;SDS011;44508;44.626;21.182;2022-12-18T08:15:05;114.13;;;58.90;;
58731;SDS011;44508;44.626;21.182;2022-12-18T08:17:31;116.57;;;60.75;;
58731;SDS011;44508;44.626;21.182;2022-12-18T08:19:58;113.50;;;58.72;;
58731;SDS011;44508;44.626;21.182;2022-12-18T08:22:24;132.57;;;67.18;;
58731;SDS011;44508;44.626;21.182;2022-12-18T08:24:50;85.75;;;43.75;;
58731;SDS011;44508;44.626;21.182;2022-12-18T08:27:16;103.65;;;52.92;;
58731;SDS011;44508;44.626;21.182;2022-12-18T08:29:42;93.60;;;50.40;;
58731;SDS011;44508;44.626;21.182;2022-12-18T08:32:08;87.10;;;47.35;;
58731;SDS011;44508;44.626;21.182;2022-12-18T08:34:34;98.55;;;50.92;;
58731;SDS011;44508;44.626;21.182;2022-12-18T08:37:00;89.93;;;49.85;;
58731;SDS011;44508;44.626;21.182;2022-12-18T08:39:26;101.13;;;54.08;;
58731;SDS011;44508;44.626;21.182;2022-12-18T08:41:52;86.28;;;48.42;;
58731;SDS011;44508;44.626;21.182;2022-12-18T08:44:37;91.88;;;44.78;;
58731;SDS011;44508;44.626;21.182;2022-12-18T08:47:03;109.70;;;56.45;;
58731;SDS011;44508;44.626;21.182;2022-12-18T08:49:29;96.00;;;49.13;;
58731;SDS011;44508;44.626;21.182;2022-12-18T08:51:56;91.72;;;48.08;;
58731;SDS011;44508;44.626;21.182;2022-12-18T08:54:23;95.43;;;50.80;;
58731;SDS011;44508;44.626;21.182;2022-12-18T08:56:49;81.35;;;45.33;;
58731;SDS011;44508;44.626;21.182;2022-12-18T08:59:16;83.05;;;46.28;;
58731;SDS011;44508;44.626;21.182;2022-12-18T09:01:42;91.18;;;48.88;;
58731;SDS011;44508;44.626;21.182;2022-12-18T09:04:09;91.75;;;51.35;;
58731;SDS011;44508;44.626;21.182;2022-12-18T09:06:35;89.93;;;49.03;;
58731;SDS011;44508;44.626;21.182;2022-12-18T09:09:02;92.60;;;47.65;;
58731;SDS011;44508;44.626;21.182;2022-12-18T09:11:30;91.32;;;48.38;;
58731;SDS011;44508;44.626;21.182;2022-12-18T09:13:57;85.93;;;46.67;;
58731;SDS011;44508;44.626;21.182;2022-12-18T09:16:24;101.15;;;52.95;;
58731;SDS011;44508;44.626;21.182;2022-12-18T09:18:50;101.20;;;56.40;;
58731;SDS011;44508;44.626;21.182;2022-12-18T09:21:17;96.85;;;50.22;;
58731;SDS011;44508;44.626;21.182;2022-12-18T09:23:44;82.97;;;43.30;;
58731;SDS011;44508;44.626;21.182;2022-12-18T09:26:10;87.80;;;45.22;;
58731;SDS011;44508;44.626;21.182;2022-12-18T09:28:36;86.60;;;45.72;;
58731;SDS011;44508;44.626;21.182;2022-12-18T09:31:06;83.40;;;45.17;;
58731;SDS011;44508;44.626;21.182;2022-12-18T09:33:32;89.13;;;49.08;;
58731;SDS011;44508;44.626;21.182;2022-12-18T09:36:00;77.97;;;41.33;;
58731;SDS011;44508;44.626;21.182;2022-12-18T09:38:26;85.00;;;48.55;;
58731;SDS011;44508;44.626;21.182;2022-12-18T09:40:53;107.40;;;59.33;;
58731;SDS011;44508;44.626;21.182;2022-12-18T09:43:22;159.38;;;86.22;;
58731;SDS011;44508;44.626;21.182;2022-12-18T09:45:58;114.63;;;61.10;;
58731;SDS011;44508;44.626;21.182;2022-12-18T09:50:50;121.22;;;62.92;;
58731;SDS011;44508;44.626;21.182;2022-12-18T09:53:22;121.65;;;64.55;;
58731;SDS011;44508;44.626;21.182;2022-12-18T09:55:49;93.78;;;51.05;;
58731;SDS011;44508;44.626;21.182;2022-12-18T10:00:43;92.50;;;49.92;;
58731;SDS011;44508;44.626;21.182;2022-12-18T10:03:10;85.88;;;47.45;;
58731;SDS011;44508;44.626;21.182;2022-12-18T10:05:54;116.38;;;67.25;;
58731;SDS011;44508;44.626;21.182;2022-12-18T10:11:11;96.40;;;51.80;;
58731;SDS011;44508;44.626;21.182;2022-12-18T10:16:43;94.13;;;53.88;;
58731;SDS011;44508;44.626;21.182;2022-12-18T10:22:11;95.35;;;50.83;;
58731;SDS011;44508;44.626;21.182;2022-12-18T10:27:21;108.13;;;56.47;;
58731;SDS011;44508;44.626;21.182;2022-12-18T10:29:48;91.68;;;51.05;;
58731;SDS011;44508;44.626;21.182;2022-12-18T10:32:15;93.68;;;50.03;;
58731;SDS011;44508;44.626;21.182;2022-12-18T10:34:49;102.00;;;55.10;;
58731;SDS011;44508;44.626;21.182;2022-12-18T10:37:17;94.88;;;53.15;;
58731;SDS011;44508;44.626;21.182;2022-12-18T10:39:44;95.55;;;50.15;;
58731;SDS011;44508;44.626;21.182;2022-12-18T10:42:11;97.47;;;54.08;;
58731;SDS011;44508;44.626;21.182;2022-12-18T10:44:39;101.63;;;56.90;;
58731;SDS011;44508;44.626;21.182;2022-12-18T10:47:06;76.07;;;41.08;;
58731;SDS011;44508;44.626;21.182;2022-12-18T10:49:36;92.05;;;50.33;;
58731;SDS011;44508;44.626;21.182;2022-12-18T10:52:15;95.13;;;49.40;;
58731;SDS011;44508;44.626;21.182;2022-12-18T10:54:55;97.50;;;53.65;;
58731;SDS011;44508;44.626;21.182;2022-12-18T10:59:53;86.45;;;46.55;;
58731;SDS011;44508;44.626;21.182;2022-12-18T11:02:37;103.57;;;52.88;;
58731;SDS011;44508;44.626;21.182;2022-12-18T11:05:23;98.35;;;52.10;;
58731;SDS011;44508;44.626;21.182;2022-12-18T11:07:49;103.50;;;55.03;;
58731;SDS011;44508;44.626;21.182;2022-12-18T11:10:17;96.70;;;51.45;;
58731;SDS011;44508;44.626;21.182;2022-12-18T11:12:44;86.05;;;48.08;;
58731;SDS011;44508;44.626;21.182;2022-12-18T11:15:15;91.88;;;50.35;;
58731;SDS011;44508;44.626;21.182;2022-12-18T11:17:41;89.43;;;48.97;;
58731;SDS011;44508;44.626;21.182;2022-12-18T11:20:53;92.38;;;49.05;;
58731;SDS011;44508;44.626;21.182;2022-12-18T11:23:00;88.25;;;46.05;;
58731;SDS011;44508;44.626;21.182;2022-12-18T11:25:27;93.78;;;47.60;;
58731;SDS011;44508;44.626;21.182;2022-12-18T11:28:03;96.05;;;51.67;;
58731;SDS011;44508;44.626;21.182;2022-12-18T11:30:33;89.78;;;47.72;;
58731;SDS011;44508;44.626;21.182;2022-12-18T11:33:07;108.93;;;57.03;;
58731;SDS011;44508;44.626;21.182;2022-12-18T11:35:49;102.32;;;50.38;;
58731;SDS011;44508;44.626;21.182;2022-12-18T11:40:43;98.80;;;51.92;;
58731;SDS011;44508;44.626;21.182;2022-12-18T11:43:17;85.95;;;44.85;;
58731;SDS011;44508;44.626;21.182;2022-12-18T11:45:53;92.20;;;49.67;;
58731;SDS011;44508;44.626;21.182;2022-12-18T11:48:22;92.07;;;48.78;;
58731;SDS011;44508;44.626;21.182;2022-12-18T11:50:52;91.18;;;48.38;;
58731;SDS011;44508;44.626;21.182;2022-12-18T11:53:19;92.72;;;49.35;;
58731;SDS011;44508;44.626;21.182;2022-12-18T12:09:04;114.53;;;65.57;;
58731;SDS011;44508;44.626;21.182;2022-12-18T12:19:32;87.70;;;45.88;;
58731;SDS011;44508;44.626;21.182;2022-12-18T12:30:16;79.82;;;41.95;;
58731;SDS011;44508;44.626;21.182;2022-12-18T12:35:25;111.13;;;58.15;;
58731;SDS011;44508;44.626;21.182;2022-12-18T12:38:01;91.07;;;48.45;;
58731;SDS011;44508;44.626;21.182;2022-12-18T12:46:10;109.47;;;55.08;;
58731;SDS011;44508;44.626;21.182;2022-12-18T12:51:19;108.28;;;56.15;;
58731;SDS011;44508;44.626;21.182;2022-12-18T12:53:46;103.57;;;53.85;;
58731;SDS011;44508;44.626;21.182;2022-12-18T12:56:13;146.60;;;76.28;;
58731;SDS011;44508;44.626;21.182;2022-12-18T12:59:00;144.85;;;73.68;;
58731;SDS011;44508;44.626;21.182;2022-12-18T13:06:37;125.95;;;66.13;;
58731;SDS011;44508;44.626;21.182;2022-12-18T13:09:06;121.22;;;66.10;;
58731;SDS011;44508;44.626;21.182;2022-12-18T13:11:42;144.63;;;78.50;;
58731;SDS011;44508;44.626;21.182;2022-12-18T13:19:48;99.85;;;52.45;;
58731;SDS011;44508;44.626;21.182;2022-12-18T13:22:22;110.35;;;60.90;;
58731;SDS011;44508;44.626;21.182;2022-12-18T13:24:48;110.03;;;56.83;;
58731;SDS011;44508;44.626;21.182;2022-12-18T13:29:59;115.82;;;56.63;;
58731;SDS011;44508;44.626;21.182;2022-12-18T13:32:25;132.13;;;66.38;;
58731;SDS011;44508;44.626;21.182;2022-12-18T13:37:54;118.65;;;58.72;;
58731;SDS011;44508;44.626;21.182;2022-12-18T13:48:19;90.05;;;47.47;;
58731;SDS011;44508;44.626;21.182;2022-12-18T13:50:50;101.72;;;53.70;;
58731;SDS011;44508;44.626;21.182;2022-12-18T13:53:20;103.18;;;52.28;;
58731;SDS011;44508;44.626;21.182;2022-12-18T13:55:47;134.75;;;64.80;;
58731;SDS011;44508;44.626;21.182;2022-12-18T13:58:13;111.82;;;61.55;;
58731;SDS011;44508;44.626;21.182;2022-12-18T14:00:42;148.13;;;76.03;;
58731;SDS011;44508;44.626;21.182;2022-12-18T14:03:24;118.72;;;63.35;;
58731;SDS011;44508;44.626;21.182;2022-12-18T14:05:58;107.72;;;57.90;;
58731;SDS011;44508;44.626;21.182;2022-12-18T14:08:25;134.95;;;69.68;;
58731;SDS011;44508;44.626;21.182;2022-12-18T14:10:53;149.32;;;75.60;;
58731;SDS011;44508;44.626;21.182;2022-12-18T14:13:29;89.95;;;49.05;;
58731;SDS011;44508;44.626;21.182;2022-12-18T14:15:56;108.93;;;61.58;;
58731;SDS011;44508;44.626;21.182;2022-12-18T14:20:58;119.38;;;69.13;;
58731;SDS011;44508;44.626;21.182;2022-12-18T14:25:51;107.75;;;61.47;;
58731;SDS011;44508;44.626;21.182;2022-12-18T14:28:17;107.10;;;59.95;;
58731;SDS011;44508;44.626;21.182;2022-12-18T14:30:44;119.72;;;66.47;;
58731;SDS011;44508;44.626;21.182;2022-12-18T14:33:18;97.00;;;55.10;;
58731;SDS011;44508;44.626;21.182;2022-12-18T14:40:46;98.63;;;54.90;;
58731;SDS011;44508;44.626;21.182;2022-12-18T14:43:12;105.60;;;57.80;;
58731;SDS011;44508;44.626;21.182;2022-12-18T14:45:42;92.32;;;49.28;;
58731;SDS011;44508;44.626;21.182;2022-12-18T14:48:16;108.32;;;54.28;;
58731;SDS011;44508;44.626;21.182;2022-12-18T14:50:42;101.40;;;55.50;;
58731;SDS011;44508;44.626;21.182;2022-12-18T14:53:42;115.57;;;63.75;;
58731;SDS011;44508;44.626;21.182;2022-12-18T14:56:01;126.07;;;65.55;;
58731;SDS011;44508;44.626;21.182;2022-12-18T14:58:27;134.73;;;70.22;;
58731;SDS011;44508;44.626;21.182;2022-12-18T15:00:53;108.45;;;59.33;;
58731;SDS011;44508;44.626;21.182;2022-12-18T15:03:20;111.15;;;60.00;;
58731;SDS011;44508;44.626;21.182;2022-12-18T15:05:46;113.85;;;62.25;;
58731;SDS011;44508;44.626;21.182;2022-12-18T15:08:31;108.13;;;58.60;;
58731;SDS011;44508;44.626;21.182;2022-12-18T15:10:59;115.53;;;63.80;;
58731;SDS011;44508;44.626;21.182;2022-12-18T15:13:25;108.60;;;58.35;;
58731;SDS011;44508;44.626;21.182;2022-12-18T15:15:52;233.25;;;105.68;;
58731;SDS011;44508;44.626;21.182;2022-12-18T15:18:20;264.00;;;118.13;;
58731;SDS011;44508;44.626;21.182;2022-12-18T15:23:21;332.80;;;143.65;;
58731;SDS011;44508;44.626;21.182;2022-12-18T15:25:57;496.08;;;264.65;;
58731;SDS011;44508;44.626;21.182;2022-12-18T15:28:25;150.52;;;75.63;;
58731;SDS011;44508;44.626;21.182;2022-12-18T15:31:00;242.93;;;124.70;;
58731;SDS011;44508;44.626;21.182;2022-12-18T15:33:30;123.88;;;67.45;;
58731;SDS011;44508;44.626;21.182;2022-12-18T15:36:00;233.57;;;125.65;;
58731;SDS011;44508;44.626;21.182;2022-12-18T15:38:27;311.42;;;170.52;;
58731;SDS011;44508;44.626;21.182;2022-12-18T15:40:53;225.85;;;121.55;;
58731;SDS011;44508;44.626;21.182;2022-12-18T15:43:22;120.88;;;62.22;;
58731;SDS011;44508;44.626;21.182;2022-12-18T15:45:58;132.48;;;70.03;;
58731;SDS011;44508;44.626;21.182;2022-12-18T15:48:25;131.63;;;67.40;;
58731;SDS011;44508;44.626;21.182;2022-12-18T15:50:51;124.25;;;63.10;;
58731;SDS011;44508;44.626;21.182;2022-12-18T15:53:18;129.82;;;66.45;;
58731;SDS011;44508;44.626;21.182;2022-12-18T15:55:44;104.68;;;56.17;;
58731;SDS011;44508;44.626;21.182;2022-12-18T15:58:29;121.07;;;59.83;;
58731;SDS011;44508;44.626;21.182;2022-12-18T16:00:55;130.38;;;56.67;;
58731;SDS011;44508;44.626;21.182;2022-12-18T16:03:24;91.75;;;46.38;;
58731;SDS011;44508;44.626;21.182;2022-12-18T16:05:50;88.53;;;48.00;;
58731;SDS011;44508;44.626;21.182;2022-12-18T16:08:16;100.47;;;54.20;;
58731;SDS011;44508;44.626;21.182;2022-12-18T16:10:42;113.75;;;55.97;;
58731;SDS011;44508;44.626;21.182;2022-12-18T16:13:11;131.35;;;68.38;;
58731;SDS011;44508;44.626;21.182;2022-12-18T16:15:38;141.50;;;69.13;;
58731;SDS011;44508;44.626;21.182;2022-12-18T16:18:04;145.50;;;73.35;;
58731;SDS011;44508;44.626;21.182;2022-12-18T16:20:30;144.07;;;74.05;;
58731;SDS011;44508;44.626;21.182;2022-12-18T16:22:56;156.73;;;84.20;;